Terminal Aerodrome Forecast
Issued by NWS

Home | Current Version | Previous Version | Text Only | Print | Product List | Glossary On
Versions: 1 2 3 4 5 6 7 8 9 10 11 12 13 14 15 16
933
FTUS44 KTSA 231720
TAFFYV
TAF
KFYV 231720Z 2318/2418 30008KT P6SM VCTS BKN025CB
      TEMPO 2318/2321 VRB15G30KT 4SM -TSRA
     FM232100 34011KT P6SM BKN050 BKN120
     FM240200 02004KT P6SM SCT120=

USA.gov is the U.S. government's official web portal to all federal, state and local government web resources and services.